createdAt,value
2018-04-12T00:00:42.571Z,6.91
2018-04-12T00:03:08.843Z,6.63
2018-04-12T00:05:35.163Z,6.42
2018-04-12T00:08:01.530Z,6.34
2018-04-12T00:10:27.819Z,6.52
2018-04-12T00:12:54.185Z,6.50
2018-04-12T00:15:20.612Z,6.53
2018-04-12T00:17:47.051Z,6.42
2018-04-12T00:20:13.426Z,6.52
2018-04-12T00:22:40.058Z,6.71
2018-04-12T00:25:06.584Z,6.91
2018-04-12T00:27:32.960Z,7.08
2018-04-12T00:29:59.315Z,7.33
2018-04-12T00:32:25.726Z,7.31
2018-04-12T00:34:52.202Z,7.43
2018-04-12T00:37:18.553Z,7.46
2018-04-12T00:39:44.911Z,7.44
2018-04-12T00:42:11.214Z,7.53
2018-04-12T00:44:37.492Z,7.59
2018-04-12T00:47:03.929Z,7.60
2018-04-12T00:49:30.331Z,7.65
2018-04-12T00:51:56.649Z,7.57
2018-04-12T00:54:22.984Z,7.68
2018-04-12T00:56:49.374Z,7.53
2018-04-12T00:59:15.698Z,7.40
2018-04-12T01:01:42.014Z,7.47
2018-04-12T01:04:08.300Z,7.36
2018-04-12T01:06:35.707Z,6.81
2018-04-12T01:09:02.068Z,6.51
2018-04-12T01:11:28.380Z,6.48
2018-04-12T01:13:54.821Z,6.33
2018-04-12T01:16:21.193Z,6.22
2018-04-12T01:18:47.566Z,6.25
2018-04-12T01:21:13.837Z,6.22
2018-04-12T01:23:40.108Z,5.92
2018-04-12T01:26:06.779Z,5.59
2018-04-12T01:28:33.523Z,5.46
2018-04-12T01:30:59.811Z,5.75
2018-04-12T01:33:26.302Z,5.94
2018-04-12T01:35:52.688Z,5.95
2018-04-12T01:38:18.959Z,5.61
2018-04-12T01:40:45.284Z,5.57
2018-04-12T01:43:11.663Z,5.57
2018-04-12T01:45:38.098Z,5.66
2018-04-12T01:48:04.396Z,5.66
2018-04-12T01:50:30.665Z,5.39
2018-04-12T01:52:57.437Z,5.14
2018-04-12T01:55:23.719Z,5.12
2018-04-12T01:57:50.033Z,5.04
2018-04-12T02:00:16.303Z,4.82
2018-04-12T02:02:42.584Z,4.75
2018-04-12T02:05:08.930Z,4.71
2018-04-12T02:07:36.352Z,4.77
2018-04-12T02:10:02.699Z,4.79
2018-04-12T02:12:28.973Z,4.93
2018-04-12T02:14:55.299Z,5.17
2018-04-12T02:17:21.563Z,5.26
2018-04-12T02:19:47.864Z,5.38
2018-04-12T02:22:18.016Z,5.39
2018-04-12T02:24:44.304Z,5.58
2018-04-12T02:27:10.590Z,5.58
2018-04-12T02:29:37.012Z,5.62
2018-04-12T02:32:03.316Z,5.79
2018-04-12T02:34:29.609Z,5.75
2018-04-12T02:36:55.932Z,5.53
2018-04-12T02:39:22.204Z,5.46
2018-04-12T02:41:48.479Z,5.68
2018-04-12T02:44:18.019Z,5.80
2018-04-12T02:46:44.288Z,5.88
2018-04-12T02:49:10.566Z,6.04
2018-04-12T02:51:37.065Z,6.06
2018-04-12T02:54:03.382Z,6.02
2018-04-12T02:56:29.663Z,5.93
2018-04-12T02:58:56.027Z,5.99
2018-04-12T03:01:22.348Z,6.10
2018-04-12T03:03:48.668Z,6.21
2018-04-12T03:06:15.004Z,6.21
2018-04-12T03:08:41.272Z,6.09
2018-04-12T03:11:07.541Z,5.89
2018-04-12T03:13:34.968Z,5.63
2018-04-12T03:16:01.251Z,5.58
2018-04-12T03:18:27.610Z,5.51
2018-04-12T03:20:53.903Z,5.59
2018-04-12T03:23:20.229Z,5.63
2018-04-12T03:25:46.550Z,5.55
2018-04-12T03:28:12.949Z,5.59
2018-04-12T03:30:39.211Z,5.58
2018-04-12T03:33:05.475Z,5.51
2018-04-12T03:35:32.249Z,5.46
2018-04-12T03:37:58.520Z,5.22
2018-04-12T03:40:24.795Z,5.11
2018-04-12T03:42:51.123Z,5.00
2018-04-12T03:45:17.500Z,4.88
2018-04-12T03:47:43.767Z,4.86
2018-04-12T03:50:10.248Z,4.69
2018-04-12T03:52:39.703Z,5.05
2018-04-12T03:55:06.680Z,5.01
2018-04-12T03:57:33.378Z,5.26
2018-04-12T03:59:59.705Z,5.41
2018-04-12T04:02:26.058Z,5.49
2018-04-12T04:04:52.337Z,5.44
2018-04-12T04:07:18.653Z,5.22
2018-04-12T04:09:44.975Z,4.92
2018-04-12T04:12:11.343Z,4.42
2018-04-12T04:14:49.656Z,4.28
2018-04-12T04:17:28.555Z,4.29
2018-04-12T04:20:07.046Z,4.47
2018-04-12T04:22:33.512Z,4.36
2018-04-12T04:25:02.981Z,4.41
2018-04-12T04:27:29.275Z,4.63
2018-04-12T04:29:55.635Z,4.67
2018-04-12T04:32:21.910Z,4.92
2018-04-12T04:34:48.204Z,5.31
2018-04-12T04:37:14.976Z,5.09
2018-04-12T04:39:41.246Z,5.12
2018-04-12T04:42:07.630Z,5.49
2018-04-12T04:44:33.945Z,5.41
2018-04-12T04:47:00.323Z,5.66
2018-04-12T04:49:26.652Z,5.99
2018-04-12T04:51:52.984Z,6.21
2018-04-12T04:54:20.125Z,6.46
2018-04-12T04:56:46.520Z,6.69
2018-04-12T04:59:12.793Z,7.00
2018-04-12T05:01:39.124Z,7.24
2018-04-12T05:04:05.448Z,7.36
2018-04-12T05:06:32.411Z,7.70
2018-04-12T05:08:58.729Z,8.11
2018-04-12T05:11:25.252Z,8.89
2018-04-12T05:13:51.611Z,8.89
2018-04-12T05:16:17.879Z,8.94
2018-04-12T05:18:44.172Z,8.72
2018-04-12T05:21:10.494Z,8.69
2018-04-12T05:23:37.793Z,8.27
2018-04-12T05:26:04.124Z,8.34
2018-04-12T05:28:30.705Z,8.52
2018-04-12T05:30:57.081Z,9.07
2018-04-12T05:33:23.375Z,9.41
2018-04-12T05:35:49.666Z,9.75
2018-04-12T05:38:31.004Z,9.73
2018-04-12T05:40:57.300Z,9.87
2018-04-12T05:43:23.652Z,10.17
2018-04-12T05:45:50.281Z,10.60
2018-04-12T05:48:16.927Z,10.41
2018-04-12T05:50:43.208Z,10.45
2018-04-12T05:53:09.672Z,10.06
2018-04-12T05:55:35.941Z,10.33
2018-04-12T05:58:02.236Z,10.12
2018-04-12T06:00:28.579Z,9.96
2018-04-12T06:02:54.852Z,10.44
2018-04-12T06:05:21.140Z,10.73
2018-04-12T06:07:47.876Z,11.13
2018-04-12T06:10:14.493Z,11.47
2018-04-12T06:12:40.790Z,11.87
2018-04-12T06:15:07.082Z,11.91
2018-04-12T06:17:33.414Z,11.96
2018-04-12T06:19:59.687Z,12.21
2018-04-12T06:22:25.955Z,11.79
2018-04-12T06:24:52.703Z,11.87
2018-04-12T06:27:18.987Z,11.70
2018-04-12T06:29:45.256Z,11.92
2018-04-12T06:32:11.590Z,12.58
2018-04-12T06:34:37.901Z,12.86
2018-04-12T06:37:04.196Z,13.13
2018-04-12T06:39:30.556Z,13.32
2018-04-12T06:41:56.828Z,13.03
2018-04-12T06:44:23.185Z,13.15
2018-04-12T06:46:49.995Z,13.26
2018-04-12T06:49:16.439Z,13.30
2018-04-12T06:51:42.729Z,13.81
2018-04-12T06:54:09.163Z,14.27
2018-04-12T06:56:35.799Z,13.79
2018-04-12T06:59:02.085Z,13.77
2018-04-12T07:01:31.656Z,13.50
2018-04-12T07:03:57.956Z,13.84
2018-04-12T07:06:24.231Z,14.17
2018-04-12T07:08:50.567Z,14.62
2018-04-12T07:11:16.868Z,14.49
2018-04-12T07:13:43.292Z,14.46
2018-04-12T07:16:09.574Z,14.79
2018-04-12T07:18:35.860Z,14.93
2018-04-12T07:21:02.412Z,15.34
2018-04-12T07:23:28.703Z,15.56
2018-04-12T07:25:55.047Z,15.51
2018-04-12T07:28:21.328Z,15.48
2018-04-12T07:30:47.619Z,15.63
2018-04-12T07:33:14.168Z,15.52
2018-04-12T07:35:40.459Z,15.81
2018-04-12T07:38:06.796Z,15.62
2018-04-12T07:40:33.281Z,16.10
2018-04-12T07:42:59.567Z,16.40
2018-04-12T07:45:28.668Z,16.20
2018-04-12T07:47:54.996Z,16.42
2018-04-12T07:50:21.396Z,16.68
2018-04-12T07:52:47.759Z,16.60
2018-04-12T07:55:14.039Z,16.81
2018-04-12T07:57:40.366Z,16.76
2018-04-12T08:00:06.756Z,17.06
2018-04-12T08:02:33.112Z,17.24
2018-04-12T08:04:59.397Z,16.98
2018-04-12T08:07:25.845Z,17.49
2018-04-12T08:09:58.150Z,17.83
2018-04-12T08:12:24.488Z,18.10
2018-04-12T08:14:50.997Z,18.32
2018-04-12T08:17:17.373Z,18.44
2018-04-12T08:19:43.762Z,18.98
2018-04-12T08:22:10.036Z,19.56
2018-04-12T08:24:36.337Z,19.79
2018-04-12T08:27:02.607Z,19.54
2018-04-12T08:29:28.984Z,19.62
2018-04-12T08:31:55.271Z,19.40
2018-04-12T08:34:21.547Z,19.27
2018-04-12T08:36:47.931Z,19.72
2018-04-12T08:39:14.207Z,19.65
2018-04-12T08:41:40.493Z,20.01
2018-04-12T08:44:06.886Z,20.39
2018-04-12T08:46:33.688Z,20.12
2018-04-12T08:49:00.504Z,20.17
2018-04-12T08:51:27.280Z,20.26
2018-04-12T08:53:53.622Z,20.34
2018-04-12T08:56:20.010Z,20.82
2018-04-12T08:58:46.311Z,21.38
2018-04-12T09:01:12.604Z,21.56
2018-04-12T09:03:38.932Z,20.87
2018-04-12T09:06:05.246Z,20.63
2018-04-12T09:08:31.547Z,20.75
2018-04-12T09:10:57.948Z,20.73
2018-04-12T09:13:24.939Z,21.32
2018-04-12T09:15:51.220Z,21.80
2018-04-12T09:18:17.506Z,21.72
2018-04-12T09:20:43.853Z,21.83
2018-04-12T09:23:10.160Z,21.98
2018-04-12T09:25:36.488Z,22.04
2018-04-12T09:28:02.759Z,22.24
2018-04-12T09:30:29.046Z,22.15
2018-04-12T09:32:55.417Z,22.34
2018-04-12T09:35:21.711Z,21.85
2018-04-12T09:37:48.019Z,21.87
2018-04-12T09:40:14.417Z,22.35
2018-04-12T09:42:40.771Z,22.57
2018-04-12T09:45:07.067Z,22.79
2018-04-12T09:47:33.345Z,22.85
2018-04-12T09:49:59.635Z,22.54
2018-04-12T09:52:26.107Z,22.68
2018-04-12T09:54:52.430Z,23.15
2018-04-12T09:57:18.808Z,23.43
2018-04-12T09:59:45.089Z,23.26
2018-04-12T10:02:11.428Z,23.21
2018-04-12T10:04:43.884Z,23.76
2018-04-12T10:07:10.206Z,24.00
2018-04-12T10:09:36.502Z,24.26
2018-04-12T10:12:02.845Z,24.56
2018-04-12T10:14:29.160Z,23.88
2018-04-12T10:16:55.430Z,24.46
2018-04-12T10:19:21.886Z,25.07
2018-04-12T10:21:48.178Z,25.14
2018-04-12T10:24:14.554Z,25.41
2018-04-12T10:26:40.884Z,25.12
2018-04-12T10:29:07.191Z,24.77
2018-04-12T10:31:33.627Z,25.08
2018-04-12T10:33:59.894Z,25.51
2018-04-12T10:36:26.211Z,25.15
2018-04-12T10:38:52.626Z,25.69
2018-04-12T10:41:18.913Z,26.01
2018-04-12T10:43:45.268Z,25.32
2018-04-12T10:46:11.680Z,25.01
2018-04-12T10:48:38.010Z,25.38
2018-04-12T10:51:04.467Z,25.45
2018-04-12T10:53:31.000Z,25.73
2018-04-12T10:55:57.347Z,25.77
2018-04-12T10:58:24.150Z,25.98
2018-04-12T11:00:50.537Z,26.16
2018-04-12T11:03:16.918Z,25.32
2018-04-12T11:05:43.235Z,25.76
2018-04-12T11:08:09.579Z,25.53
2018-04-12T11:10:35.855Z,25.42
2018-04-12T11:13:02.153Z,26.01
2018-04-12T11:15:28.468Z,25.73
2018-04-12T11:17:54.734Z,26.44
2018-04-12T11:20:21.029Z,26.73
2018-04-12T11:22:47.558Z,27.02
2018-04-12T11:25:13.868Z,26.35
2018-04-12T11:27:40.240Z,26.89
2018-04-12T11:30:06.552Z,26.67
2018-04-12T11:32:32.837Z,26.22
2018-04-12T11:34:59.180Z,26.49
2018-04-12T11:37:25.471Z,26.92
2018-04-12T11:39:51.741Z,27.40
2018-04-12T11:42:18.164Z,27.39
2018-04-12T11:44:46.152Z,27.56
2018-04-12T11:47:12.434Z,27.44
2018-04-12T11:49:38.738Z,27.77
2018-04-12T11:52:05.141Z,27.47
2018-04-12T11:54:31.447Z,26.72
2018-04-12T11:56:57.775Z,27.18
2018-04-12T11:59:24.063Z,27.00
2018-04-12T12:01:50.413Z,27.15
2018-04-12T12:04:16.827Z,27.22
2018-04-12T12:06:43.132Z,26.83
2018-04-12T12:09:09.547Z,27.61
2018-04-12T12:11:35.830Z,28.04
2018-04-12T12:14:02.112Z,28.18
2018-04-12T12:16:28.500Z,28.37
2018-04-12T12:18:54.786Z,27.55
2018-04-12T12:21:21.103Z,27.28
2018-04-12T12:23:47.467Z,26.86
2018-04-12T12:26:13.765Z,26.60
2018-04-12T12:28:40.044Z,27.52
2018-04-12T12:31:06.385Z,27.96
2018-04-12T12:33:32.704Z,27.69
2018-04-12T12:35:58.978Z,28.11
2018-04-12T12:38:25.722Z,28.38
2018-04-12T12:40:52.224Z,28.83
2018-04-12T12:43:18.525Z,28.67
2018-04-12T12:45:44.838Z,28.47
2018-04-12T12:48:11.137Z,28.53
2018-04-12T12:50:37.419Z,28.36
2018-04-12T12:53:03.811Z,28.48
2018-04-12T12:55:30.112Z,27.98
2018-04-12T12:57:56.464Z,28.32
2018-04-12T13:00:22.891Z,28.44
2018-04-12T13:02:49.314Z,28.14
2018-04-12T13:05:15.639Z,28.34
2018-04-12T13:07:41.954Z,28.20
2018-04-12T13:10:08.456Z,28.06
2018-04-12T13:12:34.775Z,28.54
2018-04-12T13:15:01.117Z,29.03
2018-04-12T13:17:27.423Z,28.98
2018-04-12T13:19:53.785Z,28.80
2018-04-12T13:22:20.107Z,28.78
2018-04-12T13:27:40.779Z,28.94
2018-04-12T13:30:07.238Z,28.94
2018-04-12T13:32:33.568Z,29.15
2018-04-12T13:35:00.030Z,29.04
2018-04-12T13:37:26.459Z,29.25
2018-04-12T13:39:52.808Z,29.54
2018-04-12T13:42:19.148Z,29.31
2018-04-12T13:44:45.510Z,29.27
2018-04-12T13:47:11.827Z,29.59
2018-04-12T13:49:38.187Z,29.71
2018-04-12T13:52:04.586Z,29.75
2018-04-12T13:54:30.919Z,30.28
2018-04-12T13:56:57.403Z,30.07
2018-04-12T13:59:23.750Z,30.33
2018-04-12T14:01:50.120Z,31.06
2018-04-12T14:04:16.536Z,30.88
2018-04-12T14:06:42.866Z,30.61
2018-04-12T14:09:09.184Z,31.10
2018-04-12T14:11:35.501Z,31.63
2018-04-12T14:14:01.808Z,32.36
2018-04-12T14:16:28.098Z,33.01
2018-04-12T14:18:54.494Z,32.50
2018-04-12T14:21:20.772Z,33.08
2018-04-12T14:23:47.052Z,33.31
2018-04-12T14:26:13.369Z,33.03
2018-04-12T14:28:39.737Z,33.53
2018-04-12T14:31:06.156Z,33.37
2018-04-12T14:33:35.313Z,33.13
2018-04-12T14:36:01.632Z,32.79
2018-04-12T14:38:28.192Z,32.61
2018-04-12T14:40:54.472Z,31.75
2018-04-12T14:43:20.774Z,31.09
2018-04-12T14:45:47.131Z,31.30
2018-04-12T14:48:13.411Z,30.62
2018-04-12T14:50:39.699Z,30.54
2018-04-12T14:53:06.033Z,30.79
2018-04-12T14:55:32.324Z,30.61
2018-04-12T14:57:58.614Z,29.93
2018-04-12T15:00:25.347Z,29.79
2018-04-12T15:02:51.652Z,28.13
2018-04-12T15:05:18.071Z,26.55
2018-04-12T15:07:44.360Z,25.71
2018-04-12T15:10:10.648Z,25.57
2018-04-12T15:12:36.972Z,24.64
2018-04-12T15:15:03.770Z,24.39
2018-04-12T15:17:30.072Z,24.17
2018-04-12T15:19:56.577Z,23.87
2018-04-12T15:22:22.880Z,23.59
2018-04-12T15:24:49.154Z,23.58
2018-04-12T15:27:15.790Z,23.47
2018-04-12T15:29:42.133Z,23.37
2018-04-12T15:32:08.430Z,23.37
2018-04-12T15:34:34.960Z,23.18
2018-04-12T15:37:01.298Z,23.06
2018-04-12T15:39:27.610Z,22.74
2018-04-12T15:41:53.893Z,22.58
2018-04-12T15:44:20.224Z,22.33
2018-04-12T15:46:46.521Z,22.49
2018-04-12T15:49:12.812Z,22.42
2018-04-12T15:51:39.492Z,22.42
2018-04-12T15:54:05.796Z,22.33
2018-04-12T15:56:32.142Z,22.19
2018-04-12T15:58:59.113Z,22.02
2018-04-12T16:01:25.753Z,22.02
2018-04-12T16:03:52.043Z,21.87
2018-04-12T16:06:18.334Z,21.75
2018-04-12T16:08:44.797Z,21.51
2018-04-12T16:11:11.087Z,21.46
2018-04-12T16:13:37.363Z,21.49
2018-04-12T16:16:03.711Z,21.53
2018-04-12T16:18:30.388Z,21.50
2018-04-12T16:20:56.822Z,21.40
2018-04-12T16:23:23.152Z,21.19
2018-04-12T16:25:49.500Z,21.08
2018-04-12T16:28:15.792Z,20.99
2018-04-12T16:30:42.167Z,20.82
2018-04-12T16:33:08.553Z,20.64
2018-04-12T16:35:34.878Z,20.45
2018-04-12T16:38:01.442Z,20.20
2018-04-12T16:40:28.035Z,20.13
2018-04-12T16:42:57.622Z,20.05
2018-04-12T16:45:23.929Z,19.99
2018-04-12T16:47:50.207Z,19.94
2018-04-12T16:50:16.653Z,19.92
2018-04-12T16:52:42.993Z,19.77
2018-04-12T16:55:09.280Z,19.60
2018-04-12T16:57:35.610Z,19.54
2018-04-12T17:00:02.009Z,19.43
2018-04-12T17:02:28.486Z,19.40
2018-04-12T17:04:54.827Z,19.32
2018-04-12T17:07:21.099Z,19.18
2018-04-12T17:09:47.387Z,18.99
2018-04-12T17:12:13.808Z,18.97
2018-04-12T17:14:40.155Z,18.91
2018-04-12T17:17:06.487Z,18.90
2018-04-12T17:19:33.057Z,18.87
2018-04-12T17:21:59.443Z,18.76
2018-04-12T17:24:25.772Z,18.62
2018-04-12T17:26:52.077Z,18.67
2018-04-12T17:29:18.483Z,18.62
2018-04-12T17:31:44.993Z,18.56
2018-04-12T17:34:11.273Z,18.43
2018-04-12T17:36:37.901Z,18.28
2018-04-12T17:39:05.028Z,18.30
2018-04-12T17:41:31.308Z,18.24
2018-04-12T17:43:57.647Z,18.13
2018-04-12T17:46:24.040Z,18.15
2018-04-12T17:48:50.339Z,18.06
2018-04-12T17:51:16.684Z,17.98
2018-04-12T17:53:43.219Z,17.91
2018-04-12T17:56:09.691Z,17.83
2018-04-12T17:58:35.976Z,17.77
2018-04-12T18:01:02.856Z,17.80
2018-04-12T18:03:29.236Z,17.79
2018-04-12T18:05:55.580Z,17.65
2018-04-12T18:08:21.927Z,17.56
2018-04-12T18:10:48.404Z,17.63
2018-04-12T18:13:14.708Z,17.51
2018-04-12T18:15:40.991Z,17.50
2018-04-12T18:18:07.332Z,17.46
2018-04-12T18:20:33.648Z,17.39
2018-04-12T18:22:59.989Z,17.32
2018-04-12T18:25:26.379Z,17.32
2018-04-12T18:27:52.817Z,17.36
2018-04-12T18:30:19.192Z,17.29
2018-04-12T18:32:45.664Z,17.21
2018-04-12T18:35:15.006Z,17.21
2018-04-12T18:37:41.527Z,17.19
2018-04-12T18:40:10.547Z,17.12
2018-04-12T18:42:36.910Z,17.07
2018-04-12T18:45:03.248Z,17.02
2018-04-12T18:47:29.646Z,16.93
2018-04-12T18:49:55.940Z,16.94
2018-04-12T18:52:22.429Z,16.95
2018-04-12T18:54:48.726Z,16.90
2018-04-12T18:57:15.076Z,16.87
2018-04-12T18:59:41.369Z,16.93
2018-04-12T19:02:07.853Z,16.84
2018-04-12T19:04:34.147Z,16.73
2018-04-12T19:07:00.539Z,16.64
2018-04-12T19:09:27.066Z,16.48
2018-04-12T19:11:53.416Z,16.42
2018-04-12T19:14:19.806Z,16.25
2018-04-12T19:16:46.232Z,16.20
2018-04-12T19:19:12.548Z,16.15
2018-04-12T19:21:38.885Z,16.03
2018-04-12T19:24:05.197Z,15.91
2018-04-12T19:26:31.648Z,15.85
2018-04-12T19:28:57.981Z,15.79
2018-04-12T19:31:24.266Z,15.64
2018-04-12T19:33:50.652Z,15.62
2018-04-12T19:36:17.979Z,15.63
2018-04-12T19:38:44.288Z,15.52
2018-04-12T19:44:05.416Z,15.12
2018-04-12T19:46:31.822Z,14.95
2018-04-12T19:48:58.100Z,14.98
2018-04-12T19:51:24.471Z,14.92
2018-04-12T19:53:50.815Z,14.72
2018-04-12T19:56:17.142Z,14.85
2018-04-12T19:58:43.466Z,14.76
2018-04-12T20:01:09.753Z,14.67
2018-04-12T20:03:36.037Z,14.59
2018-04-12T20:06:02.486Z,14.50
2018-04-12T20:08:28.774Z,14.47
2018-04-12T20:10:55.161Z,14.38
2018-04-12T20:13:21.450Z,14.28
2018-04-12T20:15:47.721Z,14.12
2018-04-12T20:18:14.111Z,14.04
2018-04-12T20:20:40.397Z,14.05
2018-04-12T20:23:06.682Z,14.04
2018-04-12T20:25:32.992Z,13.93
2018-04-12T20:27:59.305Z,13.87
2018-04-12T20:30:25.579Z,13.88
2018-04-12T20:32:52.148Z,13.80
2018-04-12T20:35:18.499Z,13.69
2018-04-12T20:37:44.767Z,13.57
2018-04-12T20:40:11.117Z,13.63
2018-04-12T20:42:37.471Z,13.56
2018-04-12T20:45:03.925Z,13.60
2018-04-12T20:47:30.213Z,13.45
2018-04-12T20:49:56.485Z,13.25
2018-04-12T20:52:23.184Z,13.26
2018-04-12T20:54:52.565Z,12.84
2018-04-12T20:57:18.988Z,12.58
2018-04-12T20:59:45.311Z,12.19
2018-04-12T21:02:14.691Z,12.07
2018-04-12T21:04:40.971Z,12.21
2018-04-12T21:07:07.442Z,12.35
2018-04-12T21:09:33.722Z,12.40
2018-04-12T21:12:00.111Z,12.33
2018-04-12T21:14:26.399Z,12.46
2018-04-12T21:16:52.711Z,12.39
2018-04-12T21:19:19.076Z,12.49
2018-04-12T21:21:45.453Z,12.55
2018-04-12T21:24:11.799Z,12.58
2018-04-12T21:26:38.134Z,12.47
2018-04-12T21:29:04.535Z,12.28
2018-04-12T21:31:30.807Z,12.20
2018-04-12T21:33:57.351Z,12.10
2018-04-12T21:36:23.751Z,12.10
2018-04-12T21:38:50.084Z,12.20
2018-04-12T21:41:16.390Z,12.08
2018-04-12T21:43:42.795Z,11.57
2018-04-12T21:46:09.075Z,10.96
2018-04-12T21:48:35.371Z,10.46
2018-04-12T21:51:01.747Z,10.28
2018-04-12T21:53:28.039Z,10.45
2018-04-12T21:55:54.336Z,10.73
2018-04-12T21:58:20.722Z,10.95
2018-04-12T22:00:47.032Z,11.13
2018-04-12T22:03:13.438Z,11.21
2018-04-12T22:05:39.903Z,11.34
2018-04-12T22:08:06.313Z,11.14
2018-04-12T22:10:32.703Z,10.80
2018-04-12T22:13:02.284Z,10.81
2018-04-12T22:15:28.676Z,11.02
2018-04-12T22:17:55.066Z,11.18
2018-04-12T22:20:21.528Z,11.30
2018-04-12T22:22:47.963Z,11.23
2018-04-12T22:25:14.366Z,10.99
2018-04-12T22:27:40.823Z,10.97
2018-04-12T22:30:07.236Z,10.85
2018-04-12T22:32:33.926Z,10.76
2018-04-12T22:35:00.307Z,10.62
2018-04-12T22:37:28.881Z,10.49
2018-04-12T22:39:55.317Z,10.46
2018-04-12T22:42:21.776Z,10.66
2018-04-12T22:44:48.176Z,10.87
2018-04-12T22:47:17.755Z,10.94
2018-04-12T22:49:44.154Z,10.90
2018-04-12T22:52:10.538Z,10.99
2018-04-12T22:54:37.033Z,10.86
2018-04-12T22:57:03.451Z,10.84
2018-04-12T22:59:29.847Z,10.75
2018-04-12T23:01:56.327Z,10.62
2018-04-12T23:04:22.988Z,10.42
2018-04-12T23:06:49.444Z,10.33
2018-04-12T23:09:15.875Z,10.24
2018-04-12T23:11:42.292Z,10.09
2018-04-12T23:14:08.689Z,9.78
2018-04-12T23:16:35.184Z,9.66
2018-04-12T23:19:01.636Z,9.42
2018-04-12T23:21:28.064Z,9.56
2018-04-12T23:23:54.582Z,9.75
2018-04-12T23:26:20.994Z,9.70
2018-04-12T23:28:47.389Z,9.75
2018-04-12T23:31:13.811Z,9.63
2018-04-12T23:33:40.204Z,9.66
2018-04-12T23:36:06.598Z,9.55
2018-04-12T23:38:33.208Z,9.63
2018-04-12T23:40:59.627Z,9.73
2018-04-12T23:43:26.032Z,9.60
2018-04-12T23:45:52.564Z,9.50
2018-04-12T23:48:18.976Z,9.50
2018-04-12T23:50:45.420Z,9.63
2018-04-12T23:53:11.805Z,9.66
2018-04-12T23:55:38.293Z,9.28
2018-04-12T23:58:04.743Z,8.71
